Stringtown, Missouri
Current Conditions -  °F | °C
As of 11:53 PM on Sunday 25 Jan 2015 (Local Time) from KJLN Reporting Station
Broken Clouds Broken Clouds  
Wind Chill: 29°   Ceiling: 2600
Heat Index: 35°   Visibility: 10mi
Dew Point: 28°   Wind: 7mph
Humidity: 76%   Direction: 360°N
Pressure: 30.13"   Gusts: NA
Location:  37.2082°N, 94.5634°W
Report Text: KJLN 260553Z AUTO 36006KT 10SM BKN026 02/M02 A3013 RMK AO2 SLP208 T00171022 10050 20017 401000017 50011
Loading
Personal Weather Stations






























Interactive Weather Map New forecast layout! Learn more

10-Day Weather Forecast

Advertisements
Track Severe Weather on mobile